Terminal Aerodrome Forecast
Issued by NWS Bismarck, ND

Home | Current Version | Previous Version | Graphics & Text | Print | Product List | Glossary On
Versions: 1 2 3 4 5 6 7 8 9 10 11 12 13 14 15 16 17 18 19 20 21 22 23
000
FTUS43 KBIS 221355 AAB
TAFBIS
TAF AMD
KBIS 221355Z 2214/2312 36008KT 4SM -SN BR BKN020 OVC030
      TEMPO 2214/2216 2SM -SN BR OVC015
     FM221800 01013KT P6SM VCSH OVC008
     FM230000 01006KT P6SM OVC015=

USA.gov is the U.S. government's official web portal to all federal, state and local government web resources and services.